createdAt,value
2023-05-19T00:01:13.648Z,9.18
2023-05-19T00:03:52.515Z,9.11
2023-05-19T00:06:24.893Z,9.04
2023-05-19T00:09:05.416Z,9.00
2023-05-19T00:11:32.145Z,8.97
2023-05-19T00:14:00.330Z,8.96
2023-05-19T00:16:28.807Z,8.92
2023-05-19T00:18:57.159Z,8.88
2023-05-19T00:21:23.942Z,8.83
2023-05-19T00:23:50.493Z,8.79
2023-05-19T00:26:16.967Z,8.76
2023-05-19T00:28:43.530Z,8.72
2023-05-19T00:31:09.970Z,8.69
2023-05-19T00:33:36.566Z,8.66
2023-05-19T00:36:04.261Z,8.64
2023-05-19T00:38:32.277Z,8.61
2023-05-19T00:41:00.060Z,8.58
2023-05-19T00:43:26.643Z,8.54
2023-05-19T00:45:53.225Z,8.51
2023-05-19T00:48:19.718Z,8.45
2023-05-19T00:50:46.497Z,8.43
2023-05-19T00:53:14.869Z,8.41
2023-05-19T00:55:42.701Z,8.37
2023-05-19T00:58:10.342Z,8.33
2023-05-19T01:00:37.168Z,8.29
2023-05-19T01:03:11.227Z,8.25
2023-05-19T01:05:44.629Z,8.20
2023-05-19T01:08:11.404Z,8.15
2023-05-19T01:10:37.882Z,8.12
2023-05-19T01:13:06.401Z,8.09
2023-05-19T01:15:57.647Z,8.09
2023-05-19T01:18:32.508Z,8.06
2023-05-19T01:21:25.108Z,8.06
2023-05-19T01:23:54.199Z,8.04
2023-05-19T01:26:59.250Z,7.99
2023-05-19T01:29:51.119Z,7.93
2023-05-19T01:32:20.893Z,7.92
2023-05-19T01:34:50.280Z,7.87
2023-05-19T01:37:17.918Z,7.83
2023-05-19T01:39:45.603Z,7.79
2023-05-19T01:42:14.380Z,7.79
2023-05-19T01:44:41.699Z,7.76
2023-05-19T01:47:09.539Z,7.72
2023-05-19T01:49:36.105Z,7.72
2023-05-19T01:52:02.702Z,7.69
2023-05-19T01:54:29.161Z,7.68
2023-05-19T01:57:40.751Z,7.64
2023-05-19T02:00:32.076Z,7.59
2023-05-19T02:03:07.757Z,7.56
2023-05-19T02:05:34.129Z,7.51
2023-05-19T02:08:16.982Z,7.48
2023-05-19T02:10:49.549Z,7.48
2023-05-19T02:13:20.148Z,7.47
2023-05-19T02:15:48.604Z,7.46
2023-05-19T02:18:17.927Z,7.44
2023-05-19T02:20:44.509Z,7.43
2023-05-19T02:23:11.046Z,7.39
2023-05-19T02:25:37.521Z,7.31
2023-05-19T02:28:04.187Z,7.26
2023-05-19T02:30:32.001Z,7.20
2023-05-19T02:32:58.748Z,7.19
2023-05-19T02:35:25.210Z,7.15
2023-05-19T02:37:51.619Z,7.14
2023-05-19T02:40:18.229Z,7.12
2023-05-19T02:42:44.674Z,7.09
2023-05-19T02:45:11.594Z,7.05
2023-05-19T02:47:38.420Z,7.02
2023-05-19T02:50:06.030Z,6.99
2023-05-19T02:52:32.470Z,6.97
2023-05-19T02:54:59.074Z,6.97
2023-05-19T02:57:26.714Z,6.96
2023-05-19T02:59:53.202Z,6.96
2023-05-19T03:02:19.709Z,6.95
2023-05-19T03:04:46.270Z,6.93
2023-05-19T03:07:16.375Z,6.92
2023-05-19T03:09:42.829Z,6.90
2023-05-19T03:12:09.356Z,6.89
2023-05-19T03:14:37.777Z,6.86
2023-05-19T03:17:07.473Z,6.82
2023-05-19T03:19:33.893Z,6.81
2023-05-19T03:22:00.307Z,6.79
2023-05-19T03:24:26.754Z,6.78
2023-05-19T03:26:53.245Z,6.78
2023-05-19T03:29:19.724Z,6.74
2023-05-19T03:31:46.111Z,6.73
2023-05-19T03:34:12.554Z,6.70
2023-05-19T03:36:39.821Z,6.70
2023-05-19T03:39:06.937Z,6.68
2023-05-19T03:41:33.422Z,6.67
2023-05-19T03:44:01.390Z,6.63
2023-05-19T03:46:27.950Z,6.62
2023-05-19T03:48:54.472Z,6.63
2023-05-19T03:51:20.886Z,6.62
2023-05-19T03:53:48.603Z,6.60
2023-05-19T03:56:18.096Z,6.60
2023-05-19T03:58:45.058Z,6.62
2023-05-19T04:01:12.030Z,6.62
2023-05-19T04:03:38.613Z,6.61
2023-05-19T04:06:05.219Z,6.62
2023-05-19T04:08:32.161Z,6.63
2023-05-19T04:10:58.755Z,6.63
2023-05-19T04:13:25.395Z,6.61
2023-05-19T04:15:52.197Z,6.64
2023-05-19T04:18:18.677Z,6.67
2023-05-19T04:20:45.102Z,6.64
2023-05-19T04:23:11.637Z,6.67
2023-05-19T04:25:38.268Z,6.71
2023-05-19T04:28:04.690Z,6.74
2023-05-19T04:30:31.404Z,6.76
2023-05-19T04:32:59.180Z,6.80
2023-05-19T04:35:25.785Z,6.81
2023-05-19T04:37:54.369Z,6.80
2023-05-19T04:40:23.614Z,6.84
2023-05-19T04:42:52.280Z,6.85
2023-05-19T04:45:18.817Z,6.89
2023-05-19T04:47:46.965Z,6.92
2023-05-19T04:50:14.201Z,6.97
2023-05-19T04:52:42.439Z,7.01
2023-05-19T04:55:11.293Z,7.04
2023-05-19T04:57:38.812Z,7.09
2023-05-19T05:00:08.971Z,7.12
2023-05-19T05:02:35.474Z,7.17
2023-05-19T05:05:02.493Z,7.22
2023-05-19T05:07:30.840Z,7.27
2023-05-19T05:09:58.638Z,7.29
2023-05-19T05:12:25.382Z,7.32
2023-05-19T05:14:52.178Z,7.35
2023-05-19T05:17:19.429Z,7.41
2023-05-19T05:19:46.250Z,7.45
2023-05-19T05:22:13.170Z,7.49
2023-05-19T05:24:39.883Z,7.55
2023-05-19T05:27:08.211Z,7.60
2023-05-19T05:29:34.947Z,7.66
2023-05-19T05:32:01.503Z,7.67
2023-05-19T05:34:28.257Z,7.72
2023-05-19T05:36:54.960Z,7.75
2023-05-19T05:39:21.486Z,7.78
2023-05-19T05:41:48.013Z,7.84
2023-05-19T05:44:14.464Z,7.92
2023-05-19T05:46:41.287Z,7.99
2023-05-19T05:49:08.390Z,8.09
2023-05-19T05:51:35.786Z,8.16
2023-05-19T05:54:03.063Z,8.24
2023-05-19T05:56:29.934Z,8.32
2023-05-19T05:58:56.735Z,8.38
2023-05-19T06:01:23.888Z,8.49
2023-05-19T06:03:50.476Z,8.56
2023-05-19T06:06:17.002Z,8.88
2023-05-19T06:08:43.543Z,11.32
2023-05-19T06:11:10.293Z,13.63
2023-05-19T06:13:36.943Z,14.83
2023-05-19T06:16:04.010Z,15.13
2023-05-19T06:18:30.571Z,15.63
2023-05-19T06:20:57.145Z,16.16
2023-05-19T06:23:25.182Z,15.35
2023-05-19T06:25:51.671Z,15.54
2023-05-19T06:28:18.194Z,15.94
2023-05-19T06:30:44.634Z,16.52
2023-05-19T06:33:11.296Z,16.65
2023-05-19T06:35:38.088Z,16.63
2023-05-19T06:38:04.583Z,16.61
2023-05-19T06:40:31.204Z,16.51
2023-05-19T06:42:57.752Z,16.25
2023-05-19T06:45:24.172Z,16.42
2023-05-19T06:47:50.804Z,16.49
2023-05-19T06:50:17.385Z,16.24
2023-05-19T06:52:44.332Z,16.12
2023-05-19T06:55:10.796Z,16.08
2023-05-19T06:57:37.239Z,16.03
2023-05-19T07:00:05.111Z,15.80
2023-05-19T07:02:31.983Z,15.77
2023-05-19T07:04:58.545Z,15.82
2023-05-19T07:07:24.988Z,15.70
2023-05-19T07:09:51.510Z,15.76
2023-05-19T07:12:18.017Z,15.93
2023-05-19T07:14:44.595Z,15.85
2023-05-19T07:17:11.151Z,15.64
2023-05-19T07:19:37.568Z,15.39
2023-05-19T07:22:04.423Z,15.32
2023-05-19T07:24:31.696Z,15.28
2023-05-19T07:26:58.559Z,15.46
2023-05-19T07:29:25.115Z,15.60
2023-05-19T07:31:57.784Z,15.77
2023-05-19T07:34:24.839Z,16.03
2023-05-19T07:36:54.304Z,16.10
2023-05-19T07:39:21.091Z,16.28
2023-05-19T07:41:52.699Z,16.30
2023-05-19T07:44:19.336Z,16.28
2023-05-19T07:46:45.982Z,16.18
2023-05-19T07:49:12.455Z,16.27
2023-05-19T07:51:38.935Z,16.39
2023-05-19T07:54:05.534Z,16.67
2023-05-19T07:56:31.988Z,16.80
2023-05-19T07:58:58.440Z,16.88
2023-05-19T08:01:24.937Z,16.95
2023-05-19T08:03:51.465Z,16.89
2023-05-19T08:06:17.979Z,16.82
2023-05-19T08:08:44.480Z,17.16
2023-05-19T08:11:10.860Z,17.66
2023-05-19T08:13:37.298Z,18.14
2023-05-19T08:16:03.910Z,18.37
2023-05-19T08:18:30.714Z,18.69
2023-05-19T08:20:57.217Z,18.92
2023-05-19T08:23:23.801Z,19.05
2023-05-19T08:25:50.231Z,18.87
2023-05-19T08:28:16.906Z,18.94
2023-05-19T08:30:43.371Z,19.10
2023-05-19T08:33:09.913Z,19.16
2023-05-19T08:35:36.476Z,19.14
2023-05-19T08:38:03.026Z,18.94
2023-05-19T08:40:32.038Z,19.09
2023-05-19T08:42:58.677Z,19.37
2023-05-19T08:45:25.102Z,19.51
2023-05-19T08:47:52.040Z,19.54
2023-05-19T08:50:27.086Z,19.97
2023-05-19T08:53:15.090Z,19.94
2023-05-19T08:55:58.930Z,20.14
2023-05-19T08:58:28.124Z,20.20
2023-05-19T09:00:56.850Z,20.27
2023-05-19T09:03:26.547Z,20.35
2023-05-19T09:05:53.221Z,20.18
2023-05-19T09:08:19.809Z,20.09
2023-05-19T09:10:46.320Z,19.88
2023-05-19T09:13:12.810Z,19.79
2023-05-19T09:15:41.250Z,19.63
2023-05-19T09:18:12.649Z,19.65
2023-05-19T09:20:44.279Z,19.87
2023-05-19T09:23:17.461Z,20.18
2023-05-19T09:25:48.147Z,20.32
2023-05-19T09:28:14.729Z,20.46
2023-05-19T09:30:41.211Z,20.48
2023-05-19T09:33:10.110Z,20.58
2023-05-19T09:35:37.081Z,20.34
2023-05-19T09:38:03.607Z,20.74
2023-05-19T09:40:30.578Z,20.98
2023-05-19T09:42:57.074Z,21.08
2023-05-19T09:45:27.260Z,21.14
2023-05-19T09:47:53.976Z,20.99
2023-05-19T09:50:20.515Z,20.85
2023-05-19T09:52:48.244Z,20.38
2023-05-19T09:55:15.520Z,20.19
2023-05-19T09:57:42.027Z,19.95
2023-05-19T10:00:14.540Z,19.82
2023-05-19T10:02:45.521Z,19.70
2023-05-19T10:05:17.153Z,19.58
2023-05-19T10:07:45.708Z,19.70
2023-05-19T10:10:13.919Z,19.92
2023-05-19T10:12:41.066Z,19.96
2023-05-19T10:15:12.038Z,20.04
2023-05-19T10:17:40.674Z,20.38
2023-05-19T10:20:15.841Z,20.34
2023-05-19T10:22:44.996Z,20.15
2023-05-19T10:25:15.040Z,20.36
2023-05-19T10:27:55.232Z,20.20
2023-05-19T10:30:40.750Z,20.22
2023-05-19T10:33:12.182Z,20.32
2023-05-19T10:36:24.654Z,20.30
2023-05-19T10:39:05.120Z,20.63
2023-05-19T10:41:46.979Z,20.76
2023-05-19T10:44:21.188Z,20.76
2023-05-19T10:46:47.775Z,20.71
2023-05-19T10:49:22.721Z,20.66
2023-05-19T10:51:50.013Z,20.60
2023-05-19T10:54:18.354Z,20.56
2023-05-19T10:56:47.485Z,20.63
2023-05-19T10:59:35.621Z,20.66
2023-05-19T11:02:06.149Z,20.75
2023-05-19T11:04:49.567Z,20.50
2023-05-19T11:07:19.711Z,20.60
2023-05-19T11:09:51.356Z,20.46
2023-05-19T11:12:25.375Z,20.62
2023-05-19T11:14:55.474Z,20.71
2023-05-19T11:17:24.602Z,20.83
2023-05-19T11:19:56.015Z,20.71
2023-05-19T11:22:24.876Z,20.71
2023-05-19T11:24:53.553Z,21.09
2023-05-19T11:27:34.340Z,21.26
2023-05-19T11:30:08.115Z,21.23
2023-05-19T11:32:38.922Z,21.34
2023-05-19T11:35:06.646Z,21.53
2023-05-19T11:37:33.315Z,21.78
2023-05-19T11:40:02.099Z,21.92
2023-05-19T11:42:28.724Z,22.10
2023-05-19T11:44:56.096Z,21.86
2023-05-19T11:47:22.822Z,21.65
2023-05-19T11:49:51.903Z,21.73
2023-05-19T11:52:22.590Z,21.75
2023-05-19T11:54:49.672Z,21.59
2023-05-19T11:57:16.576Z,21.40
2023-05-19T11:59:48.056Z,21.52
2023-05-19T12:02:18.041Z,21.63
2023-05-19T12:04:44.642Z,21.74
2023-05-19T12:07:13.058Z,21.68
2023-05-19T12:09:40.020Z,21.68
2023-05-19T12:12:07.732Z,21.74
2023-05-19T12:14:34.509Z,21.60
2023-05-19T12:17:11.343Z,21.61
2023-05-19T12:19:38.681Z,21.83
2023-05-19T12:22:07.060Z,21.77
2023-05-19T12:24:35.602Z,21.60
2023-05-19T12:27:07.488Z,21.69
2023-05-19T12:29:34.591Z,21.57
2023-05-19T12:32:01.840Z,21.33
2023-05-19T12:34:28.650Z,21.29
2023-05-19T12:36:55.114Z,21.10
2023-05-19T12:39:22.646Z,20.93
2023-05-19T12:41:49.153Z,20.91
2023-05-19T12:44:16.670Z,20.96
2023-05-19T12:46:44.365Z,21.21
2023-05-19T12:49:11.036Z,21.46
2023-05-19T12:51:37.576Z,21.43
2023-05-19T12:54:06.985Z,21.53
2023-05-19T12:56:33.490Z,21.48
2023-05-19T12:59:01.659Z,21.32
2023-05-19T13:01:29.475Z,21.31
2023-05-19T13:03:56.382Z,21.17
2023-05-19T13:06:23.119Z,21.12
2023-05-19T13:08:49.565Z,21.17
2023-05-19T13:11:16.046Z,21.24
2023-05-19T13:13:43.906Z,21.23
2023-05-19T13:16:10.626Z,21.01
2023-05-19T13:18:38.352Z,20.96
2023-05-19T13:21:05.734Z,20.71
2023-05-19T13:23:32.400Z,20.56
2023-05-19T13:25:59.365Z,20.52
2023-05-19T13:28:26.338Z,20.47
2023-05-19T13:30:52.885Z,20.56
2023-05-19T13:33:19.519Z,20.46
2023-05-19T13:35:46.034Z,20.45
2023-05-19T13:38:12.515Z,20.49
2023-05-19T13:40:39.810Z,20.31
2023-05-19T13:43:07.349Z,20.43
2023-05-19T13:45:33.854Z,20.53
2023-05-19T13:48:00.412Z,20.58
2023-05-19T13:50:26.876Z,20.82
2023-05-19T13:52:53.888Z,21.22
2023-05-19T13:55:20.767Z,21.20
2023-05-19T13:57:47.257Z,21.01
2023-05-19T14:00:14.491Z,21.06
2023-05-19T14:02:41.242Z,21.48
2023-05-19T14:05:08.533Z,21.17
2023-05-19T14:07:35.518Z,20.85
2023-05-19T14:10:03.060Z,20.82
2023-05-19T14:12:41.566Z,20.60
2023-05-19T14:15:14.433Z,20.52
2023-05-19T14:17:41.079Z,20.54
2023-05-19T14:20:08.401Z,20.71
2023-05-19T14:22:34.892Z,20.81
2023-05-19T14:25:02.200Z,20.73
2023-05-19T14:27:28.644Z,20.98
2023-05-19T14:29:55.116Z,21.27
2023-05-19T14:32:22.559Z,21.35
2023-05-19T14:34:52.833Z,21.30
2023-05-19T14:37:20.014Z,21.06
2023-05-19T14:39:46.442Z,20.77
2023-05-19T14:42:12.861Z,20.95
2023-05-19T14:44:39.360Z,21.11
2023-05-19T14:47:07.389Z,21.32
2023-05-19T14:49:34.023Z,21.36
2023-05-19T14:52:00.764Z,21.37
2023-05-19T14:54:27.183Z,21.51
2023-05-19T14:56:53.754Z,21.58
2023-05-19T14:59:21.609Z,21.59
2023-05-19T15:01:48.281Z,21.58
2023-05-19T15:04:14.914Z,21.81
2023-05-19T15:06:41.698Z,22.18
2023-05-19T15:09:08.566Z,22.28
2023-05-19T15:11:35.027Z,22.00
2023-05-19T15:14:01.525Z,21.98
2023-05-19T15:16:28.241Z,22.11
2023-05-19T15:18:54.896Z,22.18
2023-05-19T15:21:21.363Z,21.78
2023-05-19T15:23:47.824Z,21.94
2023-05-19T15:26:14.526Z,22.13
2023-05-19T15:28:41.110Z,22.27
2023-05-19T15:31:07.727Z,22.33
2023-05-19T15:33:34.956Z,22.28
2023-05-19T15:36:01.410Z,22.17
2023-05-19T15:38:29.839Z,21.73
2023-05-19T15:40:56.812Z,21.81
2023-05-19T15:43:23.755Z,22.00
2023-05-19T15:45:52.228Z,22.07
2023-05-19T15:48:19.113Z,21.76
2023-05-19T15:50:45.739Z,22.24
2023-05-19T15:53:12.213Z,22.38
2023-05-19T15:55:38.695Z,22.33
2023-05-19T15:58:05.136Z,22.57
2023-05-19T16:00:32.100Z,22.60
2023-05-19T16:02:58.836Z,22.66
2023-05-19T16:05:25.645Z,22.50
2023-05-19T16:07:52.030Z,22.13
2023-05-19T16:10:18.487Z,21.82
2023-05-19T16:12:45.460Z,21.63
2023-05-19T16:15:11.877Z,21.58
2023-05-19T16:17:38.362Z,21.80
2023-05-19T16:20:06.092Z,21.95
2023-05-19T16:22:32.809Z,22.05
2023-05-19T16:24:59.250Z,22.10
2023-05-19T16:27:25.664Z,22.27
2023-05-19T16:29:52.131Z,22.30
2023-05-19T16:32:18.797Z,22.34
2023-05-19T16:34:45.410Z,22.11
2023-05-19T16:37:11.911Z,22.11
2023-05-19T16:39:38.482Z,22.09
2023-05-19T16:42:05.229Z,22.11
2023-05-19T16:44:31.860Z,22.20
2023-05-19T16:46:58.357Z,21.85
2023-05-19T16:49:24.807Z,21.52
2023-05-19T16:51:52.878Z,21.39
2023-05-19T16:54:19.604Z,21.56
2023-05-19T16:56:46.179Z,21.82
2023-05-19T16:59:12.776Z,21.92
2023-05-19T17:01:39.341Z,21.99
2023-05-19T17:04:05.850Z,21.87
2023-05-19T17:06:32.349Z,21.81
2023-05-19T17:08:59.128Z,21.78
2023-05-19T17:11:27.163Z,21.51
2023-05-19T17:13:53.808Z,21.32
2023-05-19T17:16:20.260Z,21.05
2023-05-19T17:18:47.947Z,20.90
2023-05-19T17:21:14.577Z,20.88
2023-05-19T17:23:41.528Z,20.86
2023-05-19T17:26:08.062Z,21.06
2023-05-19T17:28:34.644Z,21.39
2023-05-19T17:31:01.471Z,21.61
2023-05-19T17:33:27.984Z,21.59
2023-05-19T17:35:54.508Z,21.65
2023-05-19T17:38:20.958Z,21.57
2023-05-19T17:40:47.467Z,21.51
2023-05-19T17:43:13.969Z,21.35
2023-05-19T17:45:40.465Z,21.08
2023-05-19T17:48:06.995Z,20.75
2023-05-19T17:50:33.836Z,20.66
2023-05-19T17:53:00.677Z,20.54
2023-05-19T17:55:29.879Z,20.62
2023-05-19T17:57:57.592Z,20.81
2023-05-19T18:00:25.290Z,20.73
2023-05-19T18:02:52.455Z,20.57
2023-05-19T18:05:19.539Z,20.35
2023-05-19T18:07:46.172Z,20.20
2023-05-19T18:10:15.375Z,20.09
2023-05-19T18:12:42.001Z,19.97
2023-05-19T18:15:08.712Z,19.90
2023-05-19T18:17:35.171Z,19.79
2023-05-19T18:20:01.797Z,19.69
2023-05-19T18:22:28.371Z,19.58
2023-05-19T18:24:54.901Z,19.48
2023-05-19T18:27:21.394Z,19.44
2023-05-19T18:29:47.868Z,19.40
2023-05-19T18:32:16.848Z,19.32
2023-05-19T18:34:43.403Z,19.18
2023-05-19T18:37:09.858Z,19.04
2023-05-19T18:39:37.215Z,18.92
2023-05-19T18:42:03.762Z,18.91
2023-05-19T18:44:30.558Z,18.83
2023-05-19T18:46:57.073Z,18.76
2023-05-19T18:49:24.963Z,18.60
2023-05-19T18:51:51.791Z,18.54
2023-05-19T18:54:18.363Z,18.54
2023-05-19T18:56:44.865Z,18.46
2023-05-19T18:59:11.435Z,18.39
2023-05-19T19:01:38.088Z,18.27
2023-05-19T19:04:04.689Z,18.15
2023-05-19T19:06:31.617Z,18.11
2023-05-19T19:08:58.049Z,18.04
2023-05-19T19:11:24.553Z,17.96
2023-05-19T19:13:51.424Z,17.91
2023-05-19T19:16:18.127Z,17.88
2023-05-19T19:18:44.665Z,17.74
2023-05-19T19:21:11.408Z,17.59
2023-05-19T19:23:37.974Z,17.53
2023-05-19T19:26:04.441Z,17.48
2023-05-19T19:28:31.068Z,17.44
2023-05-19T19:30:57.537Z,17.38
2023-05-19T19:33:24.639Z,17.34
2023-05-19T19:35:51.495Z,17.32
2023-05-19T19:38:17.968Z,17.22
2023-05-19T19:40:44.418Z,17.17
2023-05-19T19:43:11.065Z,17.12
2023-05-19T19:45:39.524Z,17.09
2023-05-19T19:48:07.037Z,17.06
2023-05-19T19:50:34.423Z,17.04
2023-05-19T19:53:01.347Z,16.99
2023-05-19T19:55:28.822Z,16.90
2023-05-19T19:57:55.398Z,16.75
2023-05-19T20:00:21.859Z,16.70
2023-05-19T20:03:03.425Z,16.65
2023-05-19T20:05:31.804Z,16.60
2023-05-19T20:07:58.407Z,16.56
2023-05-19T20:10:24.949Z,16.51
2023-05-19T20:12:51.802Z,16.42
2023-05-19T20:15:18.435Z,16.35
2023-05-19T20:17:44.887Z,16.29
2023-05-19T20:20:12.231Z,16.26
2023-05-19T20:22:39.116Z,16.16
2023-05-19T20:25:06.166Z,16.12
2023-05-19T20:27:32.675Z,16.01
2023-05-19T20:29:59.204Z,15.98
2023-05-19T20:32:25.893Z,15.91
2023-05-19T20:34:52.399Z,15.82
2023-05-19T20:37:18.844Z,15.74
2023-05-19T20:39:45.330Z,15.66
2023-05-19T20:42:12.240Z,15.60
2023-05-19T20:44:39.006Z,15.53
2023-05-19T20:47:08.110Z,15.49
2023-05-19T20:49:35.031Z,15.44
2023-05-19T20:52:01.562Z,15.39
2023-05-19T20:54:28.152Z,15.30
2023-05-19T20:56:54.781Z,15.27
2023-05-19T20:59:21.354Z,15.23
2023-05-19T21:01:48.060Z,15.15
2023-05-19T21:04:14.621Z,15.11
2023-05-19T21:06:41.144Z,15.09
2023-05-19T21:09:07.799Z,15.01
2023-05-19T21:11:34.351Z,14.96
2023-05-19T21:14:03.895Z,14.90
2023-05-19T21:16:31.142Z,14.88
2023-05-19T21:18:57.655Z,14.85
2023-05-19T21:21:24.171Z,14.81
2023-05-19T21:23:50.761Z,14.77
2023-05-19T21:26:17.557Z,14.72
2023-05-19T21:28:44.241Z,14.70
2023-05-19T21:31:10.854Z,14.62
2023-05-19T21:33:37.349Z,14.56
2023-05-19T21:36:03.962Z,14.53
2023-05-19T21:38:30.685Z,14.49
2023-05-19T21:40:57.135Z,14.44
2023-05-19T21:43:23.902Z,14.38
2023-05-19T21:45:50.471Z,14.34
2023-05-19T21:48:17.025Z,14.29
2023-05-19T21:50:43.534Z,14.24
2023-05-19T21:53:10.061Z,14.22
2023-05-19T21:55:36.528Z,14.18
2023-05-19T21:58:03.078Z,14.14
2023-05-19T22:00:29.557Z,14.10
2023-05-19T22:02:56.171Z,14.06
2023-05-19T22:05:22.677Z,14.02
2023-05-19T22:07:49.134Z,13.97
2023-05-19T22:10:15.587Z,13.93
2023-05-19T22:12:42.069Z,13.90
2023-05-19T22:15:09.178Z,13.87
2023-05-19T22:17:35.616Z,13.81
2023-05-19T22:20:02.085Z,13.75
2023-05-19T22:22:28.557Z,13.72
2023-05-19T22:24:55.272Z,13.67
2023-05-19T22:27:21.679Z,13.63
2023-05-19T22:29:48.088Z,13.61
2023-05-19T22:32:17.907Z,13.59
2023-05-19T22:34:44.803Z,13.53
2023-05-19T22:37:11.984Z,13.51
2023-05-19T22:39:39.091Z,13.46
2023-05-19T22:42:05.974Z,13.43
2023-05-19T22:44:32.442Z,13.40
2023-05-19T22:46:58.941Z,13.36
2023-05-19T22:49:27.313Z,13.31
2023-05-19T22:51:53.794Z,13.29
2023-05-19T22:54:20.477Z,13.26
2023-05-19T22:56:48.715Z,13.22
2023-05-19T22:59:17.877Z,13.18
2023-05-19T23:01:46.513Z,13.13
2023-05-19T23:04:13.951Z,13.08
2023-05-19T23:06:40.668Z,13.00
2023-05-19T23:09:07.128Z,12.93
2023-05-19T23:11:34.488Z,12.89
2023-05-19T23:14:01.099Z,12.82
2023-05-19T23:16:27.534Z,12.75
2023-05-19T23:18:53.988Z,12.72
2023-05-19T23:21:20.509Z,12.69
2023-05-19T23:23:47.057Z,12.65
2023-05-19T23:26:13.666Z,12.61
2023-05-19T23:28:42.179Z,12.54
2023-05-19T23:31:08.784Z,12.50
2023-05-19T23:33:35.465Z,12.47
2023-05-19T23:36:07.730Z,12.42
2023-05-19T23:38:34.852Z,12.37
2023-05-19T23:41:01.386Z,12.33
2023-05-19T23:43:27.934Z,12.28
2023-05-19T23:45:54.491Z,12.23
2023-05-19T23:48:21.109Z,12.19
2023-05-19T23:50:47.538Z,12.19
2023-05-19T23:53:14.427Z,12.17
2023-05-19T23:55:40.895Z,12.10
2023-05-19T23:58:07.318Z,12.05
